Terminal Aerodrome Forecast
Issued by NWS

Home | Current Version | Previous Version | Text Only | Print | Product List | Glossary On
Versions: 1 2 3 4 5 6 7 8 9 10 11 12 13 14 15
000
FTUS43 KLSX 152330
TAFSUS
TAF
KSUS 152330Z 1600/1624 22005KT P6SM SKC
     FM160600 22006KT P6SM SKC WS015/25040KT
     FM161500 22009KT P6SM SKC=

USA.gov is the U.S. government's official web portal to all federal, state and local government web resources and services.